Time;durP1;ratioP1;P1;durP2;ratioP2;P2;SDS_P1;SDS_P2;PMS_P1;PMS_P2;Temp;Humidity;BMP_temperature;BMP_pressure;BME280_temperature;BME280_humidity;BME280_pressure;Samples;Min_cycle;Max_cycle;Signal;HPM_P1;HPM_P2
2022/12/16 00:00:46;;;;;;;31.77;21.27;;;6.40;57.20;;;;;;4991031;28;20198;-57
2022/12/16 00:03:11;;;;;;;32.47;20.70;;;6.40;57.20;;;;;;4991613;28;20206;-58
2022/12/16 00:05:37;;;;;;;28.43;21.13;;;6.40;57.40;;;;;;4989081;28;20282;-58
2022/12/16 00:08:03;;;;;;;34.03;21.10;;;6.40;57.30;;;;;;4988649;28;20194;-58
2022/12/16 00:10:51;;;;;;;34.20;21.20;;;6.30;57.30;;;;;;4989892;28;20199;-58
2022/12/16 00:13:14;;;;;;;38.00;25.17;;;6.30;57.40;;;;;;4994928;28;20457;-58
2022/12/16 00:15:40;;;;;;;33.63;21.73;;;6.20;57.40;;;;;;4980861;28;20488;-57
2022/12/16 00:18:05;;;;;;;29.67;19.97;;;6.20;57.50;;;;;;4985918;28;20650;-58
2022/12/16 00:20:31;;;;;;;34.73;23.50;;;6.20;57.60;;;;;;4982394;28;20651;-58
2022/12/16 00:22:57;;;;;;;35.40;22.37;;;6.10;58.20;;;;;;4980495;28;20293;-57
2022/12/16 00:25:22;;;;;;;33.37;23.07;;;6.10;57.80;;;;;;4984357;28;20203;-58
2022/12/16 00:27:48;;;;;;;34.87;23.73;;;6.00;57.80;;;;;;4984592;28;20241;-58
2022/12/16 00:30:13;;;;;;;32.30;21.43;;;6.00;57.80;;;;;;4980925;28;20191;-58
2022/12/16 00:32:39;;;;;;;35.37;20.87;;;6.00;58.00;;;;;;4978771;28;20202;-58
2022/12/16 00:35:05;;;;;;;30.00;19.90;;;5.80;58.20;;;;;;4985221;28;20268;-58
2022/12/16 00:37:31;;;;;;;35.13;21.33;;;5.70;58.50;;;;;;4986491;28;20201;-58
2022/12/16 00:39:57;;;;;;;31.67;18.60;;;5.80;58.50;;;;;;4984069;28;20543;-58
2022/12/16 00:42:22;;;;;;;34.50;20.33;;;5.80;58.60;;;;;;4984440;28;20446;-58
2022/12/16 00:44:48;;;;;;;27.53;19.63;;;5.80;58.70;;;;;;4983022;28;20191;-58
2022/12/16 00:47:13;;;;;;;33.00;20.90;;;5.90;58.50;;;;;;4986651;28;20194;-57
2022/12/16 00:49:39;;;;;;;33.20;21.33;;;6.00;58.30;;;;;;4988814;28;20266;-57
2022/12/16 00:52:04;;;;;;;30.47;20.90;;;6.00;58.20;;;;;;4992775;28;20662;-57
2022/12/16 00:54:30;;;;;;;29.37;19.60;;;6.00;58.30;;;;;;4987964;28;20197;-57
2022/12/16 00:56:56;;;;;;;34.83;21.37;;;6.00;58.10;;;;;;4986598;28;20654;-58
2022/12/16 00:59:21;;;;;;;29.73;20.10;;;6.00;58.20;;;;;;4985813;28;20202;-57
2022/12/16 01:01:47;;;;;;;29.70;19.23;;;5.90;58.10;;;;;;4983989;28;20198;-57
2022/12/16 01:04:12;;;;;;;30.40;20.03;;;5.90;58.20;;;;;;4987691;28;20265;-56
2022/12/16 01:06:39;;;;;;;30.27;20.13;;;5.90;58.20;;;;;;4988560;28;20218;-57
2022/12/16 01:09:04;;;;;;;30.63;20.27;;;6.00;58.20;;;;;;4990257;28;20291;-57
2022/12/16 01:11:30;;;;;;;30.47;20.00;;;6.00;58.20;;;;;;4990173;28;20545;-58
2022/12/16 01:13:56;;;;;;;34.07;19.30;;;6.00;58.20;;;;;;4979012;28;20643;-57
2022/12/16 01:16:21;;;;;;;29.10;18.53;;;6.00;57.90;;;;;;4986524;28;20241;-57
2022/12/16 01:18:47;;;;;;;31.90;20.60;;;6.00;57.90;;;;;;4982492;28;20202;-57
2022/12/16 01:21:14;;;;;;;32.57;20.93;;;5.80;58.10;;;;;;4983869;28;20251;-56
2022/12/16 01:23:39;;;;;;;30.23;20.23;;;5.80;58.20;;;;;;4987351;28;20800;-56
2022/12/16 01:26:05;;;;;;;32.30;20.00;;;5.70;58.20;;;;;;4991320;28;20477;-57
2022/12/16 01:28:31;;;;;;;35.53;21.03;;;5.80;58.20;;;;;;4988693;28;20206;-58
2022/12/16 01:31:00;;;;;;;33.20;20.27;;;5.80;58.00;;;;;;4985599;28;20198;-56
2022/12/16 01:33:27;;;;;;;38.00;20.87;;;5.70;57.80;;;;;;4986098;28;20677;-56
2022/12/16 01:36:05;;;;;;;34.20;21.33;;;5.60;58.10;;;;;;4988411;28;20496;-58
2022/12/16 01:38:31;;;;;;;29.93;21.83;;;5.60;58.10;;;;;;4993475;28;20595;-57
2022/12/16 01:40:57;;;;;;;28.43;20.43;;;5.50;58.30;;;;;;4985006;28;20445;-56
2022/12/16 01:43:33;;;;;;;33.07;22.17;;;5.60;58.20;;;;;;4984713;28;20445;-56
2022/12/16 01:46:08;;;;;;;28.83;21.43;;;5.70;58.10;;;;;;4984936;28;20539;-56
2022/12/16 01:48:45;;;;;;;33.47;22.20;;;5.70;58.00;;;;;;4982036;28;20480;-55
2022/12/16 01:51:23;;;;;;;32.63;22.83;;;5.70;58.00;;;;;;4984727;28;20453;-55
2022/12/16 01:53:51;;;;;;;33.33;20.90;;;5.70;58.00;;;;;;4984192;28;20452;-56
2022/12/16 01:56:23;;;;;;;30.33;21.90;;;5.60;58.00;;;;;;4982296;28;20503;-56
2022/12/16 01:58:49;;;;;;;33.13;22.07;;;5.60;58.30;;;;;;4985129;28;20450;-55
2022/12/16 02:01:15;;;;;;;35.60;22.70;;;5.70;58.30;;;;;;4990956;28;20438;-55
2022/12/16 02:03:41;;;;;;;36.77;21.30;;;5.60;58.30;;;;;;4979303;28;20442;-56
2022/12/16 02:06:07;;;;;;;34.27;22.13;;;5.60;58.40;;;;;;4981722;28;20792;-55
2022/12/16 02:08:33;;;;;;;28.70;18.73;;;5.60;58.50;;;;;;4987017;28;20949;-56
2022/12/16 02:11:37;;;;;;;32.27;18.63;;;5.70;58.20;;;;;;4988071;28;20203;-55
2022/12/16 02:14:28;;;;;;;28.43;19.37;;;5.60;57.90;;;;;;4985581;28;20217;-58
2022/12/16 02:17:11;;;;;;;34.37;20.17;;;5.50;57.90;;;;;;4987278;28;21003;-55
2022/12/16 02:19:57;;;;;;;29.80;19.60;;;5.50;58.00;;;;;;4985741;28;20529;-56
2022/12/16 02:22:32;;;;;;;35.50;19.60;;;5.60;57.90;;;;;;4985233;28;20528;-56
2022/12/16 02:25:36;;;;;;;36.33;21.23;;;5.60;57.60;;;;;;4980498;28;20468;-57
2022/12/16 02:28:08;;;;;;;34.67;19.90;;;5.60;57.50;;;;;;4963951;28;20820;-56
2022/12/16 02:31:08;;;;;;;31.17;19.97;;;5.50;57.60;;;;;;4986783;28;20456;-56
2022/12/16 02:33:47;;;;;;;26.87;16.73;;;5.50;57.90;;;;;;4984856;28;20457;-57
2022/12/16 02:36:35;;;;;;;33.33;19.40;;;5.60;57.90;;;;;;4982226;28;20576;-57
2022/12/16 02:39:11;;;;;;;34.67;20.40;;;5.60;57.80;;;;;;4985292;28;20450;-57
2022/12/16 02:41:55;;;;;;;26.90;17.20;;;5.60;57.60;;;;;;4988574;28;20460;-57
2022/12/16 02:44:34;;;;;;;31.80;20.40;;;5.60;57.60;;;;;;4987804;28;20537;-57
2022/12/16 02:47:00;;;;;;;28.23;19.60;;;5.60;57.70;;;;;;4987552;28;20484;-58
2022/12/16 02:49:25;;;;;;;33.73;19.93;;;5.60;58.00;;;;;;4990834;28;20449;-57
2022/12/16 02:51:51;;;;;;;30.03;19.07;;;5.60;57.90;;;;;;4991397;28;20194;-57
2022/12/16 02:54:17;;;;;;;34.37;19.20;;;5.60;57.90;;;;;;4990149;28;20597;-57
2022/12/16 02:56:55;;;;;;;32.33;18.87;;;5.60;57.90;;;;;;4992313;28;20484;-56
2022/12/16 02:59:47;;;;;;;34.53;21.40;;;5.60;57.90;;;;;;4986061;28;20442;-56
2022/12/16 03:02:25;;;;;;;30.57;19.97;;;5.60;57.80;;;;;;4987890;28;20442;-58
2022/12/16 03:05:04;;;;;;;32.10;19.10;;;5.70;57.80;;;;;;4991570;28;20445;-57
2022/12/16 03:07:35;;;;;;;31.13;19.30;;;5.60;57.90;;;;;;4985578;28;20527;-58
2022/12/16 03:10:04;;;;;;;34.23;19.40;;;5.60;58.00;;;;;;4988947;28;20453;-56
2022/12/16 03:12:30;;;;;;;32.23;20.03;;;5.60;58.20;;;;;;4988596;28;20438;-57
2022/12/16 03:14:56;;;;;;;28.43;19.03;;;5.60;58.10;;;;;;4989158;28;20528;-56
2022/12/16 03:17:23;;;;;;;36.90;22.67;;;5.50;58.20;;;;;;4990701;28;20563;-57
2022/12/16 03:20:04;;;;;;;32.60;21.50;;;5.40;58.20;;;;;;4990112;28;20195;-57
2022/12/16 03:22:33;;;;;;;29.40;19.30;;;5.50;58.20;;;;;;4983993;28;20468;-56
2022/12/16 03:24:58;;;;;;;34.23;21.87;;;5.40;58.20;;;;;;4987507;28;20445;-56
2022/12/16 03:27:33;;;;;;;38.50;22.40;;;5.30;58.40;;;;;;4989854;28;20458;-57
2022/12/16 03:30:14;;;;;;;32.07;24.00;;;5.40;58.60;;;;;;4981616;28;20205;-57
2022/12/16 03:32:56;;;;;;;34.53;23.20;;;5.40;58.50;;;;;;4988493;28;21089;-57
2022/12/16 03:35:29;;;;;;;34.10;25.07;;;5.50;58.40;;;;;;4987801;28;20500;-56
2022/12/16 03:37:57;;;;;;;38.63;24.97;;;5.60;58.30;;;;;;4987967;28;20445;-55
2022/12/16 03:40:25;;;;;;;36.20;23.57;;;5.60;58.10;;;;;;4987828;28;20460;-56
2022/12/16 03:42:53;;;;;;;28.67;20.27;;;5.60;57.90;;;;;;4986219;28;20477;-56
2022/12/16 03:45:25;;;;;;;34.27;23.07;;;5.60;57.90;;;;;;4988776;28;20445;-56
2022/12/16 03:47:52;;;;;;;29.33;21.10;;;5.60;58.00;;;;;;4984830;28;20442;-57
2022/12/16 03:50:25;;;;;;;33.37;19.90;;;5.50;58.20;;;;;;4989527;28;20448;-56
2022/12/16 03:52:51;;;;;;;31.60;19.80;;;5.50;58.40;;;;;;4990637;28;20441;-56
2022/12/16 03:55:17;;;;;;;29.00;19.43;;;5.50;58.40;;;;;;4986857;28;20489;-56
2022/12/16 03:57:42;;;;;;;29.83;20.07;;;5.40;58.40;;;;;;4982288;28;20453;-56
2022/12/16 04:00:09;;;;;;;28.53;18.70;;;5.40;58.40;;;;;;4988607;28;20226;-56
2022/12/16 04:02:34;;;;;;;33.87;18.90;;;5.50;58.30;;;;;;4989888;28;20214;-56
2022/12/16 04:05:00;;;;;;;27.03;18.90;;;5.50;58.10;;;;;;4987406;28;20516;-57
2022/12/16 04:07:25;;;;;;;32.27;18.77;;;5.50;58.10;;;;;;4989466;28;20203;-58
2022/12/16 04:09:51;;;;;;;26.20;18.30;;;5.60;58.00;;;;;;4987044;28;20567;-57
2022/12/16 04:26:04;;;;;;;27.40;16.40;;;5.40;57.60;;;;;;4990236;28;20512;-58
2022/12/16 04:28:29;;;;;;;23.73;16.40;;;5.50;57.70;;;;;;4995502;28;20421;-57
2022/12/16 04:30:56;;;;;;;23.77;16.77;;;5.50;57.60;;;;;;4995275;28;20967;-56
